DLH3NW EBBR-EDDM
Flight info
| Callsign | DLH3NW |
|---|---|
| Flight time | N/A |
| Altitude | 35000 |
| Route | SOPOK Y863 ROPUV L607 EMGOD DCT MOVUM T109 HAREM T104 ROKIL ROKIL1A |
| Aircraft | A321/M-SDE2E3FGIJ1LORWXYZ/HB1 |
Departure
| Time | 2026-04-30 14:32 |
|---|---|
| Airport | Brussels Airport (EBBR) |
Arrival
| Time | N/A |
|---|---|
| Airport | Munich Airport (EDDM) |
| Time | Latitude | Longitude | Altitude | Speed | Heading |
|---|---|---|---|---|---|
| 2026-04-30 14:07 | 50.90262 | 4.48518 | 118 ft | 0 kts | 335° |
| 2026-04-30 14:21 | 50.90261 | 4.48519 | 121 ft | 2 kts | 335° |
| 2026-04-30 14:21 | 50.90212 | 4.48550 | 118 ft | 4 kts | 347° |
| 2026-04-30 14:22 | 50.90187 | 4.48553 | 120 ft | 4 kts | 23° |
| 2026-04-30 14:22 | 50.90177 | 4.48542 | 123 ft | 0 kts | 65° |
| 2026-04-30 14:25 | 50.90181 | 4.48556 | 121 ft | 4 kts | 65° |
| 2026-04-30 14:25 | 50.90243 | 4.48776 | 119 ft | 14 kts | 66° |
| 2026-04-30 14:26 | 50.90332 | 4.49086 | 122 ft | 16 kts | 65° |
| 2026-04-30 14:26 | 50.90378 | 4.49238 | 123 ft | 15 kts | 64° |
| 2026-04-30 14:26 | 50.90344 | 4.49426 | 125 ft | 12 kts | 192° |
| 2026-04-30 14:27 | 50.90264 | 4.49395 | 127 ft | 12 kts | 194° |
| 2026-04-30 14:27 | 50.90187 | 4.49364 | 127 ft | 11 kts | 194° |
| 2026-04-30 14:27 | 50.90114 | 4.49334 | 131 ft | 11 kts | 194° |
| 2026-04-30 14:28 | 50.89956 | 4.49271 | 134 ft | 11 kts | 194° |
| 2026-04-30 14:28 | 50.89881 | 4.49240 | 139 ft | 14 kts | 195° |
| 2026-04-30 14:28 | 50.89777 | 4.49197 | 145 ft | 15 kts | 195° |
| 2026-04-30 14:28 | 50.89685 | 4.49158 | 150 ft | 12 kts | 194° |
| 2026-04-30 14:29 | 50.89555 | 4.49060 | 156 ft | 11 kts | 195° |
| 2026-04-30 14:29 | 50.89379 | 4.49033 | 163 ft | 14 kts | 137° |
| 2026-04-30 14:30 | 50.89179 | 4.49040 | 176 ft | 9 kts | 168° |
| 2026-04-30 14:31 | 50.89179 | 4.49243 | 176 ft | 18 kts | 70° |
| 2026-04-30 14:31 | 50.89501 | 4.50631 | 176 ft | 137 kts | 70° |
| 2026-04-30 14:31 | 50.89875 | 4.52155 | 702 ft | 147 kts | 71° |
| 2026-04-30 14:32 | 50.90815 | 4.55087 | 2283 ft | 152 kts | 70° |
| 2026-04-30 14:32 | 50.91282 | 4.56597 | 2971 ft | 154 kts | 70° |
| 2026-04-30 14:32 | 50.91776 | 4.58161 | 3547 ft | 165 kts | 72° |
| 2026-04-30 14:33 | 50.92331 | 4.59898 | 3853 ft | 187 kts | 71° |
| 2026-04-30 14:33 | 50.93559 | 4.63922 | 4549 ft | 221 kts | 71° |
| 2026-04-30 14:33 | 50.94132 | 4.66299 | 4841 ft | 243 kts | 77° |
| 2026-04-30 14:34 | 50.94627 | 4.68968 | 5335 ft | 257 kts | 82° |
| 2026-04-30 14:34 | 50.94782 | 4.71733 | 6265 ft | 249 kts | 100° |
| 2026-04-30 14:34 | 50.94203 | 4.74288 | 7075 ft | 250 kts | 124° |
| 2026-04-30 14:34 | 50.92952 | 4.76237 | 7780 ft | 256 kts | 141° |
| 2026-04-30 14:35 | 50.90109 | 4.79844 | 9234 ft | 265 kts | 139° |
| 2026-04-30 14:35 | 50.88693 | 4.81739 | 10043 ft | 267 kts | 139° |
| 2026-04-30 14:35 | 50.87254 | 4.83646 | 10667 ft | 276 kts | 139° |
| 2026-04-30 14:36 | 50.85733 | 4.85697 | 10848 ft | 299 kts | 137° |
| 2026-04-30 14:36 | 50.84177 | 4.88000 | 11209 ft | 311 kts | 135° |
| 2026-04-30 14:36 | 50.82624 | 4.90423 | 11824 ft | 317 kts | 133° |
| 2026-04-30 14:36 | 50.81072 | 4.92928 | 12459 ft | 320 kts | 133° |
| 2026-04-30 14:37 | 50.79500 | 4.95465 | 13064 ft | 326 kts | 133° |
| 2026-04-30 14:37 | 50.77918 | 4.97982 | 13758 ft | 328 kts | 133° |
| 2026-04-30 14:37 | 50.76280 | 5.00544 | 14315 ft | 335 kts | 134° |
| 2026-04-30 14:37 | 50.74604 | 5.03127 | 14876 ft | 339 kts | 134° |
| 2026-04-30 14:38 | 50.72903 | 5.05727 | 15453 ft | 342 kts | 134° |
| 2026-04-30 14:38 | 50.71186 | 5.08346 | 16087 ft | 344 kts | 134° |
| 2026-04-30 14:38 | 50.69436 | 5.11010 | 16704 ft | 347 kts | 135° |
| 2026-04-30 14:38 | 50.67714 | 5.13633 | 17275 ft | 350 kts | 134° |
| 2026-04-30 14:39 | 50.65955 | 5.16313 | 17842 ft | 353 kts | 134° |
| 2026-04-30 14:39 | 50.64160 | 5.19048 | 18420 ft | 356 kts | 133° |
| 2026-04-30 14:39 | 50.62680 | 5.22096 | 18891 ft | 357 kts | 117° |
| 2026-04-30 14:40 | 50.60593 | 5.29257 | 19831 ft | 363 kts | 113° |
| 2026-04-30 14:40 | 50.59558 | 5.32894 | 20330 ft | 365 kts | 113° |
| 2026-04-30 14:40 | 50.58517 | 5.36552 | 20836 ft | 367 kts | 113° |
| 2026-04-30 14:40 | 50.57467 | 5.40232 | 21306 ft | 370 kts | 113° |
| 2026-04-30 14:41 | 50.56408 | 5.43931 | 21770 ft | 373 kts | 113° |
| 2026-04-30 14:41 | 50.55334 | 5.47664 | 22224 ft | 375 kts | 113° |
| 2026-04-30 14:41 | 50.54253 | 5.51415 | 22699 ft | 378 kts | 113° |
| 2026-04-30 14:41 | 50.53167 | 5.55188 | 23150 ft | 381 kts | 113° |
| 2026-04-30 14:42 | 50.52071 | 5.58991 | 23575 ft | 384 kts | 113° |
| 2026-04-30 14:42 | 50.50962 | 5.62827 | 23969 ft | 387 kts | 113° |
| 2026-04-30 14:42 | 50.49844 | 5.66681 | 24362 ft | 389 kts | 113° |
| 2026-04-30 14:42 | 50.48722 | 5.70554 | 24765 ft | 390 kts | 113° |
| 2026-04-30 14:43 | 50.47596 | 5.74438 | 25155 ft | 392 kts | 113° |
| 2026-04-30 14:43 | 50.46459 | 5.78347 | 25526 ft | 394 kts | 113° |
| 2026-04-30 14:43 | 50.45314 | 5.82270 | 25901 ft | 396 kts | 113° |
| 2026-04-30 14:43 | 50.44162 | 5.86207 | 26283 ft | 398 kts | 113° |
| 2026-04-30 14:44 | 50.43003 | 5.90163 | 26664 ft | 400 kts | 113° |
| 2026-04-30 14:44 | 50.41836 | 5.94142 | 27050 ft | 402 kts | 113° |
| 2026-04-30 14:44 | 50.40665 | 5.98136 | 27429 ft | 404 kts | 113° |
| 2026-04-30 14:44 | 50.39489 | 6.02145 | 27798 ft | 406 kts | 113° |
| 2026-04-30 14:45 | 50.38304 | 6.06172 | 28178 ft | 408 kts | 113° |
| 2026-04-30 14:45 | 50.37110 | 6.10210 | 28538 ft | 410 kts | 113° |
| 2026-04-30 14:45 | 50.35908 | 6.14269 | 28887 ft | 412 kts | 113° |
| 2026-04-30 14:45 | 50.34699 | 6.18346 | 29237 ft | 414 kts | 113° |
| 2026-04-30 14:46 | 50.33485 | 6.22441 | 29584 ft | 416 kts | 113° |
| 2026-04-30 14:46 | 50.32265 | 6.26564 | 29935 ft | 418 kts | 113° |
| 2026-04-30 14:46 | 50.31038 | 6.30696 | 30276 ft | 420 kts | 113° |
| 2026-04-30 14:46 | 50.29803 | 6.34846 | 30574 ft | 422 kts | 113° |
| 2026-04-30 14:47 | 50.28675 | 6.39082 | 30848 ft | 422 kts | 104° |
| 2026-04-30 14:47 | 50.27976 | 6.43535 | 31103 ft | 423 kts | 102° |
| 2026-04-30 14:47 | 50.27306 | 6.48028 | 31348 ft | 425 kts | 102° |
| 2026-04-30 14:47 | 50.26640 | 6.52543 | 31587 ft | 427 kts | 102° |
| 2026-04-30 14:48 | 50.25973 | 6.57077 | 31832 ft | 429 kts | 102° |
| 2026-04-30 14:48 | 50.25301 | 6.61630 | 32089 ft | 430 kts | 102° |
| 2026-04-30 14:48 | 50.24625 | 6.66174 | 32440 ft | 429 kts | 102° |
| 2026-04-30 14:48 | 50.23944 | 6.70708 | 32772 ft | 428 kts | 102° |
| 2026-04-30 14:49 | 50.23261 | 6.75233 | 33106 ft | 428 kts | 102° |
| 2026-04-30 14:49 | 50.22578 | 6.79745 | 33436 ft | 427 kts | 102° |
| 2026-04-30 14:49 | 50.21894 | 6.84253 | 33772 ft | 426 kts | 102° |
| 2026-04-30 14:49 | 50.21213 | 6.88749 | 34112 ft | 425 kts | 102° |
| 2026-04-30 14:50 | 50.19845 | 6.97723 | 34669 ft | 425 kts | 102° |
| 2026-04-30 14:50 | 50.19155 | 7.02205 | 34914 ft | 425 kts | 102° |
| 2026-04-30 14:51 | 50.17777 | 7.11161 | 35433 ft | 424 kts | 102° |
| 2026-04-30 14:51 | 50.17097 | 7.15575 | 35703 ft | 424 kts | 102° |
| 2026-04-30 14:51 | 50.15712 | 7.24507 | 36216 ft | 423 kts | 102° |
| 2026-04-30 14:52 | 50.15018 | 7.28960 | 36481 ft | 423 kts | 102° |
| 2026-04-30 14:52 | 50.13625 | 7.37865 | 36990 ft | 423 kts | 101° |
| 2026-04-30 14:52 | 50.12926 | 7.42314 | 37217 ft | 422 kts | 101° |
| 2026-04-30 14:53 | 50.11529 | 7.51199 | 37355 ft | 421 kts | 101° |
| 2026-04-30 14:53 | 50.10829 | 7.55620 | 37362 ft | 420 kts | 101° |
| 2026-04-30 14:54 | 50.08017 | 7.73272 | 37360 ft | 420 kts | 101° |
| 2026-04-30 14:55 | 50.05884 | 7.86493 | 37365 ft | 420 kts | 101° |
| 2026-04-30 14:56 | 50.03023 | 8.04185 | 37385 ft | 421 kts | 101° |
| 2026-04-30 14:57 | 50.00853 | 8.17411 | 37397 ft | 421 kts | 101° |
| 2026-04-30 14:58 | 49.97954 | 8.34989 | 37399 ft | 421 kts | 101° |
| 2026-04-30 14:58 | 49.95743 | 8.48207 | 37375 ft | 422 kts | 101° |
| 2026-04-30 14:59 | 49.93525 | 8.56677 | 37373 ft | 429 kts | 116° |
| 2026-04-30 15:00 | 49.89076 | 8.68725 | 37381 ft | 429 kts | 115° |
| 2026-04-30 15:00 | 49.85969 | 8.76605 | 36898 ft | 427 kts | 119° |
| 2026-04-30 15:01 | 49.82569 | 8.84192 | 36370 ft | 430 kts | 121° |
| 2026-04-30 15:01 | 49.81421 | 8.86690 | 36204 ft | 430 kts | 121° |
| 2026-04-30 15:01 | 49.77398 | 8.95563 | 35606 ft | 431 kts | 120° |
| 2026-04-30 15:02 | 49.75705 | 8.99377 | 35385 ft | 430 kts | 120° |
| 2026-04-30 15:02 | 49.74021 | 9.03198 | 35348 ft | 430 kts | 120° |
| 2026-04-30 15:03 | 49.65314 | 9.22194 | 35352 ft | 435 kts | 123° |
| 2026-04-30 15:04 | 49.56056 | 9.40664 | 35347 ft | 435 kts | 122° |
| 2026-04-30 15:05 | 49.50563 | 9.51801 | 34826 ft | 438 kts | 122° |
| 2026-04-30 15:06 | 49.46851 | 9.59255 | 33565 ft | 434 kts | 122° |
| 2026-04-30 15:06 | 49.43216 | 9.66517 | 32572 ft | 424 kts | 122° |
| 2026-04-30 15:07 | 49.39669 | 9.73593 | 31685 ft | 413 kts | 122° |
| 2026-04-30 15:07 | 49.36212 | 9.80483 | 30797 ft | 402 kts | 122° |
| 2026-04-30 15:08 | 49.32837 | 9.87183 | 29882 ft | 391 kts | 122° |
| 2026-04-30 15:08 | 49.27974 | 9.96822 | 28680 ft | 372 kts | 122° |
| 2026-04-30 15:09 | 49.24855 | 10.02991 | 27925 ft | 361 kts | 122° |
| 2026-04-30 15:09 | 49.21825 | 10.08975 | 27149 ft | 353 kts | 122° |
| 2026-04-30 15:10 | 49.18753 | 10.15050 | 26298 ft | 364 kts | 122° |
| 2026-04-30 15:11 | 49.12334 | 10.26963 | 24676 ft | 364 kts | 128° |
| 2026-04-30 15:11 | 49.08863 | 10.32541 | 23906 ft | 361 kts | 128° |
| 2026-04-30 15:12 | 49.03724 | 10.40785 | 22526 ft | 353 kts | 128° |
| 2026-04-30 15:13 | 49.00370 | 10.46161 | 21648 ft | 347 kts | 128° |
| 2026-04-30 15:14 | 48.93793 | 10.56646 | 19953 ft | 338 kts | 129° |
| 2026-04-30 15:14 | 48.88981 | 10.64294 | 18773 ft | 332 kts | 129° |
| 2026-04-30 15:16 | 48.81619 | 10.75949 | 16682 ft | 322 kts | 129° |
| 2026-04-30 15:17 | 48.75439 | 10.85544 | 14999 ft | 316 kts | 136° |
| 2026-04-30 15:18 | 48.66619 | 10.95399 | 13753 ft | 313 kts | 139° |
| 2026-04-30 15:19 | 48.61395 | 11.01199 | 12956 ft | 308 kts | 139° |